createdAt,value
2019-04-10T00:00:51.237Z,2.65
2019-04-10T00:03:27.850Z,3.52
2019-04-10T00:05:50.427Z,3.12
2019-04-10T00:08:19.825Z,2.67
2019-04-10T00:10:48.628Z,2.00
2019-04-10T00:13:18.354Z,2.52
2019-04-10T00:15:47.215Z,2.52
2019-04-10T00:18:15.986Z,2.90
2019-04-10T00:20:44.864Z,3.75
2019-04-10T00:23:13.636Z,2.50
2019-04-10T00:25:43.399Z,3.33
2019-04-10T00:28:12.228Z,2.67
2019-04-10T00:30:40.974Z,3.33
2019-04-10T00:33:10.268Z,2.70
2019-04-10T00:35:39.395Z,2.92
2019-04-10T00:38:09.210Z,4.35
2019-04-10T00:40:38.136Z,3.25
2019-04-10T00:43:06.806Z,2.80
2019-04-10T00:45:35.662Z,3.60
2019-04-10T00:48:05.702Z,3.72
2019-04-10T00:50:34.820Z,4.28
2019-04-10T00:53:03.552Z,5.53
2019-04-10T00:55:32.287Z,3.15
2019-04-10T00:58:01.583Z,3.02
2019-04-10T01:00:30.716Z,2.30
2019-04-10T01:02:59.462Z,3.85
2019-04-10T01:05:28.134Z,1.87
2019-04-10T01:07:56.810Z,2.27
2019-04-10T01:10:26.245Z,2.80
2019-04-10T01:12:55.039Z,2.85
2019-04-10T01:15:24.572Z,2.57
2019-04-10T01:17:53.106Z,3.10
2019-04-10T01:20:21.707Z,4.57
2019-04-10T01:22:50.503Z,2.33
2019-04-10T01:25:19.206Z,2.80
2019-04-10T01:27:48.014Z,2.12
2019-04-10T01:30:16.580Z,2.20
2019-04-10T01:32:45.043Z,2.90
2019-04-10T01:35:13.995Z,3.45
2019-04-10T01:37:51.475Z,1.85
2019-04-10T01:40:12.986Z,1.73
2019-04-10T01:42:41.410Z,2.93
2019-04-10T01:45:11.228Z,1.77
2019-04-10T01:47:39.838Z,2.40
2019-04-10T01:50:08.518Z,2.35
2019-04-10T01:52:37.335Z,2.37
2019-04-10T01:55:17.294Z,2.60
2019-04-10T01:57:36.668Z,3.30
2019-04-10T02:00:06.792Z,3.60
2019-04-10T02:02:37.280Z,2.55
2019-04-10T02:05:06.178Z,2.67
2019-04-10T02:07:35.169Z,2.90
2019-04-10T02:10:05.847Z,3.40
2019-04-10T02:12:34.665Z,2.27
2019-04-10T02:15:04.780Z,2.70
2019-04-10T02:17:33.486Z,5.83
2019-04-10T02:20:02.909Z,1.60
2019-04-10T02:22:32.827Z,1.80
2019-04-10T02:25:01.616Z,2.72
2019-04-10T02:27:30.191Z,2.20
2019-04-10T02:29:59.849Z,2.35
2019-04-10T02:32:28.888Z,2.60
2019-04-10T02:34:58.178Z,2.10
2019-04-10T02:37:27.178Z,2.33
2019-04-10T02:40:00.300Z,2.77
2019-04-10T02:42:26.882Z,2.60
2019-04-10T02:44:55.590Z,1.72
2019-04-10T02:47:24.051Z,2.20
2019-04-10T02:49:54.263Z,1.90
2019-04-10T02:52:24.540Z,2.02
2019-04-10T02:54:53.831Z,2.60
2019-04-10T02:57:22.852Z,2.17
2019-04-10T02:59:51.527Z,2.45
2019-04-10T03:02:20.329Z,2.67
2019-04-10T03:04:49.213Z,2.33
2019-04-10T03:07:18.004Z,1.85
2019-04-10T03:10:00.492Z,2.33
2019-04-10T03:12:17.065Z,2.12
2019-04-10T03:14:47.457Z,2.40
2019-04-10T03:17:15.858Z,3.30
2019-04-10T03:19:45.398Z,2.25
2019-04-10T03:22:14.230Z,2.00
2019-04-10T03:24:42.943Z,1.72
2019-04-10T03:27:12.309Z,2.85
2019-04-10T03:29:42.141Z,2.42
2019-04-10T03:32:35.487Z,1.67
2019-04-10T03:35:11.349Z,3.20
2019-04-10T03:37:40.350Z,2.00
2019-04-10T03:40:09.104Z,1.95
2019-04-10T03:42:37.794Z,2.05
2019-04-10T03:45:07.558Z,1.57
2019-04-10T03:47:37.774Z,2.60
2019-04-10T03:50:06.715Z,1.80
2019-04-10T03:52:35.696Z,2.00
2019-04-10T03:55:06.171Z,4.22
2019-04-10T03:57:34.853Z,2.17
2019-04-10T04:00:05.748Z,1.23
2019-04-10T04:02:34.430Z,2.02
2019-04-10T04:05:04.401Z,3.20
2019-04-10T04:07:33.171Z,1.55
2019-04-10T04:10:02.573Z,2.52
2019-04-10T04:12:31.345Z,1.22
2019-04-10T04:15:01.861Z,1.60
2019-04-10T04:17:30.507Z,1.92
2019-04-10T04:19:58.906Z,1.47
2019-04-10T04:22:28.510Z,1.65
2019-04-10T04:24:58.158Z,1.95
2019-04-10T04:27:27.120Z,2.62
2019-04-10T04:29:55.810Z,3.15
2019-04-10T04:32:24.502Z,3.50
2019-04-10T04:34:54.177Z,2.60
2019-04-10T04:37:23.030Z,2.05
2019-04-10T04:39:52.198Z,2.10
2019-04-10T04:42:20.998Z,2.17
2019-04-10T04:44:49.717Z,1.90
2019-04-10T04:47:18.426Z,1.40
2019-04-10T04:49:47.114Z,1.30
2019-04-10T04:52:16.276Z,1.07
2019-04-10T04:54:45.657Z,1.15
2019-04-10T04:57:14.927Z,1.35
2019-04-10T04:59:44.836Z,1.10
2019-04-10T05:02:14.333Z,1.20
2019-04-10T05:04:43.818Z,1.00
2019-04-10T05:07:13.523Z,1.30
2019-04-10T05:09:42.223Z,1.17
2019-04-10T05:12:11.347Z,1.30
2019-04-10T05:14:40.184Z,1.67
2019-04-10T05:17:08.850Z,1.17
2019-04-10T05:19:38.312Z,1.17
2019-04-10T05:22:08.040Z,1.50
2019-04-10T05:24:36.831Z,1.30
2019-04-10T05:27:05.729Z,2.15
2019-04-10T05:29:34.628Z,1.30
2019-04-10T05:32:03.312Z,1.00
2019-04-10T05:34:31.995Z,1.37
2019-04-10T05:37:00.715Z,1.10
2019-04-10T05:39:39.643Z,1.45
2019-04-10T05:42:01.951Z,1.98
2019-04-10T05:44:30.088Z,2.65
2019-04-10T05:46:58.776Z,2.02
2019-04-10T05:49:27.462Z,2.50
2019-04-10T05:51:56.182Z,1.98
2019-04-10T05:54:24.974Z,1.52
2019-04-10T05:56:54.621Z,1.85
2019-04-10T05:59:23.894Z,2.10
2019-04-10T06:01:52.785Z,3.10
2019-04-10T06:04:21.456Z,2.80
2019-04-10T06:06:49.907Z,3.37
2019-04-10T06:09:18.481Z,3.30
2019-04-10T06:11:47.370Z,3.40
2019-04-10T06:14:16.155Z,3.02
2019-04-10T06:16:44.834Z,3.05
2019-04-10T06:19:13.654Z,3.02
2019-04-10T06:21:42.343Z,2.25
2019-04-10T06:24:11.892Z,2.50
2019-04-10T06:26:40.469Z,2.20
2019-04-10T06:29:09.199Z,1.80
2019-04-10T06:31:38.939Z,1.90
2019-04-10T06:34:08.769Z,2.43
2019-04-10T06:36:37.608Z,2.47
2019-04-10T06:39:06.717Z,3.07
2019-04-10T06:41:35.269Z,3.20
2019-04-10T06:44:03.728Z,2.97
2019-04-10T06:46:32.726Z,2.73
2019-04-10T06:49:01.254Z,2.97
2019-04-10T06:51:29.688Z,3.40
2019-04-10T06:54:03.589Z,3.47
2019-04-10T06:56:29.214Z,2.97
2019-04-10T06:58:58.308Z,3.00
2019-04-10T07:01:39.019Z,2.30
2019-04-10T07:04:03.618Z,3.13
2019-04-10T07:06:44.638Z,3.63
2019-04-10T07:08:57.174Z,3.50
2019-04-10T07:11:30.452Z,2.93
2019-04-10T07:13:57.126Z,2.70
2019-04-10T07:16:28.919Z,3.03
2019-04-10T07:18:58.399Z,2.77
2019-04-10T07:21:27.997Z,3.10
2019-04-10T07:24:01.173Z,2.70
2019-04-10T07:26:37.175Z,3.40
2019-04-10T07:28:58.670Z,3.43
2019-04-10T07:31:26.330Z,3.40
2019-04-10T07:33:54.917Z,3.90
2019-04-10T07:36:24.456Z,3.17
2019-04-10T07:38:55.670Z,3.23
2019-04-10T07:41:25.900Z,3.23
2019-04-10T07:43:55.395Z,3.00
2019-04-10T07:46:24.003Z,3.77
2019-04-10T07:48:52.562Z,3.57
2019-04-10T07:51:21.165Z,3.10
2019-04-10T07:53:49.617Z,2.83
2019-04-10T07:56:20.805Z,3.03
2019-04-10T07:58:48.433Z,2.60
2019-04-10T08:01:16.846Z,2.50
2019-04-10T08:03:46.441Z,2.40
2019-04-10T08:06:15.395Z,2.60
2019-04-10T08:08:44.781Z,3.50
2019-04-10T08:11:13.381Z,2.40
2019-04-10T08:13:41.831Z,2.90
2019-04-10T08:16:10.576Z,3.80
2019-04-10T08:18:39.436Z,3.80
2019-04-10T08:21:08.057Z,3.43
2019-04-10T08:23:36.461Z,3.67
2019-04-10T08:26:05.721Z,3.80
2019-04-10T08:28:35.029Z,3.70
2019-04-10T08:31:04.416Z,3.50
2019-04-10T08:33:32.975Z,2.83
2019-04-10T08:36:01.437Z,3.13
2019-04-10T08:38:30.056Z,2.77
2019-04-10T08:40:58.662Z,3.87
2019-04-10T08:43:27.137Z,3.00
2019-04-10T08:45:55.568Z,3.33
2019-04-10T08:48:24.150Z,3.37
2019-04-10T08:50:54.637Z,3.20
2019-04-10T08:53:24.187Z,4.43
2019-04-10T08:55:52.725Z,4.10
2019-04-10T08:58:21.170Z,4.37
2019-04-10T09:00:51.140Z,3.57
2019-04-10T09:03:19.665Z,3.77
2019-04-10T09:05:49.088Z,4.10
2019-04-10T09:08:17.637Z,5.23
2019-04-10T09:10:46.920Z,6.10
2019-04-10T09:13:16.659Z,6.93
2019-04-10T09:15:45.837Z,7.33
2019-04-10T09:18:14.722Z,10.00
2019-04-10T09:20:43.210Z,11.60
2019-04-10T09:23:27.781Z,11.23
2019-04-10T09:25:41.695Z,11.67
2019-04-10T09:28:10.527Z,11.90
2019-04-10T09:30:39.085Z,12.23
2019-04-10T09:33:16.974Z,11.30
2019-04-10T09:35:38.467Z,11.07
2019-04-10T09:38:06.935Z,11.67
2019-04-10T09:40:36.258Z,12.47
2019-04-10T09:43:05.100Z,12.43
2019-04-10T09:45:33.565Z,11.87
2019-04-10T09:48:02.199Z,12.73
2019-04-10T09:50:31.076Z,14.10
2019-04-10T09:52:59.998Z,11.93
2019-04-10T09:55:29.758Z,14.07
2019-04-10T09:57:58.360Z,11.97
2019-04-10T10:00:28.223Z,12.40
2019-04-10T10:02:56.652Z,12.63
2019-04-10T10:05:25.130Z,12.50
2019-04-10T10:07:55.769Z,13.03
2019-04-10T10:10:24.634Z,14.73
2019-04-10T10:12:53.142Z,13.83
2019-04-10T10:15:21.737Z,13.17
2019-04-10T10:17:50.159Z,13.30
2019-04-10T10:20:19.584Z,13.60
2019-04-10T10:22:48.191Z,12.53
2019-04-10T10:25:17.386Z,13.30
2019-04-10T10:27:46.835Z,13.40
2019-04-10T10:30:17.526Z,13.80
2019-04-10T10:32:46.071Z,13.43
2019-04-10T10:35:14.795Z,12.67
2019-04-10T10:37:43.230Z,13.53
2019-04-10T10:40:11.825Z,12.80
2019-04-10T10:42:41.489Z,12.53
2019-04-10T10:45:10.479Z,14.67
2019-04-10T10:47:40.194Z,12.50
2019-04-10T10:50:08.909Z,12.73
2019-04-10T10:52:37.621Z,13.43
2019-04-10T10:55:06.078Z,13.00
2019-04-10T10:57:35.320Z,12.80
2019-04-10T11:00:06.272Z,13.47
2019-04-10T11:02:35.792Z,13.97
2019-04-10T11:05:07.019Z,12.57
2019-04-10T11:07:35.285Z,14.50
2019-04-10T11:10:04.258Z,13.90
2019-04-10T11:12:34.014Z,13.80
2019-04-10T11:15:03.789Z,11.97
2019-04-10T11:17:32.315Z,13.37
2019-04-10T11:20:02.287Z,13.27
2019-04-10T11:22:31.514Z,12.47
2019-04-10T11:25:00.289Z,14.50
2019-04-10T11:27:29.396Z,13.60
2019-04-10T11:30:00.852Z,15.20
2019-04-10T11:32:28.938Z,16.23
2019-04-10T11:34:59.016Z,17.23
2019-04-10T11:37:39.176Z,17.10
2019-04-10T11:39:58.602Z,16.30
2019-04-10T11:42:28.824Z,18.80
2019-04-10T11:44:57.481Z,17.30
2019-04-10T11:47:26.754Z,18.83
2019-04-10T11:49:58.611Z,18.67
2019-04-10T11:52:35.795Z,19.80
2019-04-10T11:55:05.157Z,17.27
2019-04-10T11:57:26.352Z,16.23
2019-04-10T11:59:57.085Z,19.53
2019-04-10T12:02:28.189Z,17.90
2019-04-10T12:05:01.632Z,18.53
2019-04-10T12:07:58.583Z,16.83
2019-04-10T12:12:26.279Z,19.03
2019-04-10T12:14:54.710Z,17.97
2019-04-10T12:17:23.132Z,18.40
2019-04-10T12:19:52.110Z,17.43
2019-04-10T12:22:21.246Z,17.33
2019-04-10T12:24:50.022Z,16.20
2019-04-10T12:27:19.622Z,15.37
2019-04-10T12:29:48.841Z,15.97
2019-04-10T12:32:17.374Z,15.03
2019-04-10T12:34:46.552Z,14.77
2019-04-10T12:37:15.400Z,15.27
2019-04-10T12:39:43.895Z,14.90
2019-04-10T12:42:12.353Z,14.97
2019-04-10T12:44:40.970Z,13.70
2019-04-10T12:47:09.960Z,13.73
2019-04-10T12:49:39.354Z,14.13
2019-04-10T12:52:08.047Z,14.37
2019-04-10T12:54:37.490Z,15.70
2019-04-10T12:57:06.514Z,16.67
2019-04-10T12:59:35.352Z,16.73
2019-04-10T13:02:04.867Z,19.90
2019-04-10T13:04:33.472Z,17.77
2019-04-10T13:07:01.894Z,17.90
2019-04-10T13:09:30.342Z,17.53
2019-04-10T13:11:58.802Z,16.53
2019-04-10T13:14:27.227Z,16.70
2019-04-10T13:16:56.394Z,15.90
2019-04-10T13:19:24.934Z,18.13
2019-04-10T13:21:55.751Z,18.17
2019-04-10T13:24:24.260Z,19.83
2019-04-10T13:26:52.707Z,17.40
2019-04-10T13:29:21.217Z,17.70
2019-04-10T13:31:50.188Z,17.90
2019-04-10T13:34:19.657Z,18.20
2019-04-10T13:36:48.280Z,17.40
2019-04-10T13:39:18.916Z,16.97
2019-04-10T13:41:46.854Z,17.60
2019-04-10T13:44:16.301Z,17.03
2019-04-10T13:46:44.941Z,18.10
2019-04-10T13:49:13.549Z,16.10
2019-04-10T13:51:41.979Z,18.30
2019-04-10T13:54:10.444Z,17.43
2019-04-10T13:56:39.266Z,16.67
2019-04-10T13:59:08.799Z,17.50
2019-04-10T14:01:37.784Z,15.00
2019-04-10T14:04:07.080Z,17.73
2019-04-10T14:06:36.015Z,16.80
2019-04-10T14:09:22.578Z,21.33
2019-04-10T14:11:37.524Z,17.47
2019-04-10T14:14:06.513Z,18.90
2019-04-10T14:16:35.124Z,18.77
2019-04-10T14:19:03.568Z,18.43
2019-04-10T14:21:33.192Z,18.83
2019-04-10T14:24:03.642Z,18.43
2019-04-10T14:26:48.912Z,19.33
2019-04-10T14:29:14.324Z,17.30
2019-04-10T14:31:51.009Z,18.40
2019-04-10T14:34:20.220Z,17.97
2019-04-10T14:36:49.630Z,17.93
2019-04-10T14:39:20.910Z,14.90
2019-04-10T14:41:48.174Z,14.83
2019-04-10T14:44:16.609Z,15.83
2019-04-10T14:46:46.353Z,16.77
2019-04-10T14:49:14.798Z,16.73
2019-04-10T14:51:44.277Z,15.83
2019-04-10T14:54:13.330Z,17.23
2019-04-10T14:56:42.065Z,16.00
2019-04-10T14:59:11.479Z,16.10
2019-04-10T15:01:40.024Z,14.00
2019-04-10T15:04:08.797Z,15.73
2019-04-10T15:06:37.501Z,12.33
2019-04-10T15:09:19.915Z,15.57
2019-04-10T15:11:38.513Z,17.07
2019-04-10T15:14:07.680Z,16.23
2019-04-10T15:16:36.888Z,17.23
2019-04-10T15:19:05.427Z,15.10
2019-04-10T15:21:34.663Z,14.47
2019-04-10T15:24:03.537Z,12.80
2019-04-10T15:26:32.324Z,16.80
2019-04-10T15:29:00.855Z,14.13
2019-04-10T15:31:29.415Z,14.40
2019-04-10T15:33:58.124Z,12.23
2019-04-10T15:36:26.678Z,14.43
2019-04-10T15:38:55.135Z,10.57
2019-04-10T15:41:23.909Z,11.27
2019-04-10T15:43:52.428Z,11.10
2019-04-10T15:46:21.288Z,9.80
2019-04-10T15:48:50.703Z,7.70
2019-04-10T15:51:20.318Z,7.73
2019-04-10T15:53:49.400Z,7.33
2019-04-10T15:56:18.954Z,8.73
2019-04-10T15:58:47.964Z,9.27
2019-04-10T16:01:18.130Z,9.53
2019-04-10T16:03:47.267Z,9.73
2019-04-10T16:06:15.670Z,12.27
2019-04-10T16:08:44.808Z,11.60
2019-04-10T16:11:26.532Z,16.43
2019-04-10T16:13:57.033Z,13.53
2019-04-10T16:16:36.968Z,16.27
2019-04-10T16:19:20.401Z,15.50
2019-04-10T16:21:50.007Z,18.13
2019-04-10T16:24:19.063Z,15.90
2019-04-10T16:26:47.542Z,15.10
2019-04-10T16:29:16.061Z,15.93
2019-04-10T16:31:44.453Z,17.07
2019-04-10T16:34:13.538Z,17.03
2019-04-10T16:36:42.050Z,14.70
2019-04-10T16:39:17.877Z,17.80
2019-04-10T16:41:46.341Z,14.43
2019-04-10T16:44:15.045Z,16.20
2019-04-10T16:46:44.780Z,15.10
2019-04-10T16:49:14.729Z,13.10
2019-04-10T16:51:43.272Z,14.20
2019-04-10T16:54:12.613Z,11.70
2019-04-10T16:56:42.167Z,11.20
2019-04-10T16:59:10.679Z,14.20
2019-04-10T17:01:39.270Z,15.83
2019-04-10T17:04:07.760Z,12.87
2019-04-10T17:06:36.517Z,13.50
2019-04-10T17:09:08.135Z,16.67
2019-04-10T17:11:36.886Z,12.80
2019-04-10T17:14:05.339Z,20.37
2019-04-10T17:16:33.787Z,20.60
2019-04-10T17:19:03.324Z,20.17
2019-04-10T17:21:31.959Z,18.80
2019-04-10T17:24:00.785Z,14.80
2019-04-10T17:26:29.371Z,13.37
2019-04-10T17:28:58.805Z,15.50
2019-04-10T17:31:28.572Z,14.70
2019-04-10T17:33:57.151Z,19.30
2019-04-10T17:36:25.575Z,17.47
2019-04-10T17:38:55.115Z,13.93
2019-04-10T17:41:23.841Z,11.80
2019-04-10T17:43:54.249Z,9.90
2019-04-10T17:46:22.809Z,8.63
2019-04-10T17:48:51.730Z,9.27
2019-04-10T17:51:21.831Z,10.63
2019-04-10T17:53:50.537Z,12.77
2019-04-10T17:56:20.040Z,13.53
2019-04-10T17:58:49.731Z,14.20
2019-04-10T18:01:20.867Z,11.10
2019-04-10T18:03:54.824Z,11.97
2019-04-10T18:06:21.420Z,11.33
2019-04-10T18:08:49.931Z,9.17
2019-04-10T18:11:18.383Z,15.83
2019-04-10T18:13:46.909Z,16.97
2019-04-10T18:16:15.341Z,16.37
2019-04-10T18:18:44.245Z,14.53
2019-04-10T18:21:14.734Z,12.37
2019-04-10T18:23:43.951Z,11.63
2019-04-10T18:26:12.476Z,9.17
2019-04-10T18:28:41.466Z,9.57
2019-04-10T18:31:10.370Z,8.73
2019-04-10T18:33:38.959Z,11.30
2019-04-10T18:36:07.417Z,11.73
2019-04-10T18:38:35.835Z,12.10
2019-04-10T18:41:07.417Z,10.20
2019-04-10T18:43:34.343Z,10.20
2019-04-10T18:46:10.419Z,7.70
2019-04-10T18:48:32.859Z,7.90
2019-04-10T18:51:01.540Z,8.60
2019-04-10T18:53:30.083Z,10.03
2019-04-10T18:55:58.647Z,9.70
2019-04-10T18:58:29.727Z,10.60
2019-04-10T19:01:08.747Z,9.40
2019-04-10T19:06:19.148Z,6.57
2019-04-10T19:09:01.575Z,7.13
2019-04-10T19:11:22.918Z,9.50
2019-04-10T19:13:49.102Z,8.13
2019-04-10T19:16:19.668Z,9.53
2019-04-10T19:18:48.153Z,10.33
2019-04-10T19:21:17.812Z,11.13
2019-04-10T19:23:47.633Z,14.10
2019-04-10T19:26:18.955Z,13.70
2019-04-10T19:28:48.686Z,15.27
2019-04-10T19:31:21.227Z,17.80
2019-04-10T19:33:49.158Z,13.97
2019-04-10T19:36:17.755Z,11.70
2019-04-10T19:38:46.324Z,14.47
2019-04-10T19:41:25.116Z,13.13
2019-04-10T19:43:44.908Z,14.70
2019-04-10T19:46:13.403Z,14.57
2019-04-10T19:48:41.819Z,16.97
2019-04-10T19:51:10.281Z,16.33
2019-04-10T19:53:39.528Z,15.43
2019-04-10T19:56:09.356Z,14.00
2019-04-10T19:58:38.516Z,12.67
2019-04-10T20:01:08.657Z,13.77
2019-04-10T20:03:37.565Z,12.17
2019-04-10T20:06:06.115Z,11.07
2019-04-10T20:08:35.519Z,10.73
2019-04-10T20:11:04.058Z,11.00
2019-04-10T20:13:32.629Z,12.00
2019-04-10T20:16:01.042Z,14.83
2019-04-10T20:18:29.576Z,10.73
2019-04-10T20:20:58.099Z,14.57
2019-04-10T20:23:26.518Z,12.63
2019-04-10T20:25:55.209Z,11.27
2019-04-10T20:28:24.671Z,12.03
2019-04-10T20:30:54.894Z,12.83
2019-04-10T20:33:23.243Z,11.10
2019-04-10T20:35:52.846Z,12.40
2019-04-10T20:38:21.406Z,11.67
2019-04-10T20:40:49.881Z,15.23
2019-04-10T20:43:18.600Z,15.30
2019-04-10T20:45:47.589Z,14.33
2019-04-10T20:48:16.171Z,14.40
2019-04-10T20:50:44.870Z,11.93
2019-04-10T20:53:13.374Z,10.70
2019-04-10T20:55:41.927Z,14.10
2019-04-10T20:58:11.245Z,13.23
2019-04-10T21:00:41.005Z,11.70
2019-04-10T21:03:09.583Z,11.10
2019-04-10T21:05:38.014Z,10.87
2019-04-10T21:08:06.430Z,11.43
2019-04-10T21:10:34.857Z,12.27
2019-04-10T21:13:04.408Z,15.57
2019-04-10T21:15:33.432Z,13.93
2019-04-10T21:18:02.614Z,14.87
2019-04-10T21:20:32.339Z,12.83
2019-04-10T21:23:01.373Z,12.13
2019-04-10T21:25:30.918Z,11.10
2019-04-10T21:28:00.349Z,12.87
2019-04-10T21:30:30.473Z,12.97
2019-04-10T21:33:00.535Z,14.90
2019-04-10T21:35:33.526Z,11.70
2019-04-10T21:38:02.634Z,10.10
2019-04-10T21:40:31.170Z,8.97
2019-04-10T21:42:59.852Z,10.80
2019-04-10T21:45:28.254Z,9.40
2019-04-10T21:47:57.784Z,10.23
2019-04-10T21:50:26.989Z,9.80
2019-04-10T21:52:55.541Z,10.67
2019-04-10T21:55:23.962Z,7.87
2019-04-10T21:57:52.407Z,9.20
2019-04-10T22:00:38.757Z,8.20
2019-04-10T22:03:07.254Z,8.53
2019-04-10T22:05:37.314Z,8.53
2019-04-10T22:08:13.294Z,9.30
2019-04-10T22:10:44.011Z,9.33
2019-04-10T22:13:13.422Z,11.73
2019-04-10T22:15:44.824Z,11.70
2019-04-10T22:18:13.397Z,13.20
2019-04-10T22:20:41.816Z,15.73
2019-04-10T22:23:10.259Z,12.67
2019-04-10T22:25:39.543Z,13.50
2019-04-10T22:28:08.574Z,14.70
2019-04-10T22:30:37.213Z,15.90
2019-04-10T22:33:05.735Z,13.70
2019-04-10T22:35:34.156Z,13.60
2019-04-10T22:38:02.690Z,15.60
2019-04-10T22:40:31.254Z,16.53
2019-04-10T22:42:59.650Z,14.33
2019-04-10T22:45:30.908Z,14.27
2019-04-10T22:48:00.731Z,15.70
2019-04-10T22:50:29.256Z,13.90
2019-04-10T22:52:57.709Z,12.87
2019-04-10T22:55:26.132Z,13.13
2019-04-10T22:57:54.870Z,12.03
2019-04-10T23:00:32.862Z,9.73
2019-04-10T23:03:01.352Z,9.13
2019-04-10T23:05:29.768Z,8.43
2019-04-10T23:07:59.046Z,9.03
2019-04-10T23:10:28.752Z,10.50
2019-04-10T23:13:01.313Z,11.00
2019-04-10T23:15:27.537Z,14.10
2019-04-10T23:17:57.127Z,15.03
2019-04-10T23:20:25.899Z,14.90
2019-04-10T23:22:54.861Z,18.63
2019-04-10T23:25:24.571Z,16.37
2019-04-10T23:27:55.186Z,19.43
2019-04-10T23:30:24.502Z,17.47
2019-04-10T23:32:53.575Z,22.15
2019-04-10T23:35:22.357Z,20.57
2019-04-10T23:37:51.229Z,20.03
2019-04-10T23:40:21.063Z,20.00
2019-04-10T23:43:01.304Z,18.23
2019-04-10T23:45:20.230Z,19.62
2019-04-10T23:47:48.915Z,17.15
2019-04-10T23:50:18.550Z,15.70
2019-04-10T23:52:47.932Z,13.48
2019-04-10T23:55:17.820Z,16.05
2019-04-10T23:57:46.424Z,17.83
